This is the latest recevied weather packets stored in our database for station/object KB1JLI. If no packets are shown the sender has not sent any weather packets the latest 1 day(s).
| Time | Temp. | Humidity | Pressure | Rain* | Wind** | Luminosity | Snow |
|---|---|---|---|---|---|---|---|
| 1778100385 | 16.11° C | 94% | 1007.1 hPa | 3.05 mm | - | 52 W/m² | - |
| 1778099780 | 16.11° C | 93% | 1006.8 hPa | 1.78 mm | - | 26 W/m² | - |
| 1778099476 | 16.67° C | 92% | 1006.9 hPa | 3.05 mm | - | 53 W/m² | - |
| 1778098870 | 16.67° C | 91% | 1006.8 hPa | 1.78 mm | - | 54 W/m² | - |
| 1778097657 | 17.78° C | 88% | 1007 hPa | 1.78 mm | - | 60 W/m² | - |
| 1778097050 | 17.78° C | 86% | 1006.6 hPa | 0 mm | - | 72 W/m² | - |
| 1778096748 | 17.78° C | 85% | 1006.9 hPa | 0 mm | - | 120 W/m² | - |
| 1778096142 | 17.78° C | 84% | 1006.8 hPa | 1.27 mm | - | 70 W/m² | - |
| 1778091897 | 21.67° C | 60% | 1007.1 hPa | 0 mm | - | 34 W/m² | - |
| 1778088558 | 22.78° C | 58% | 1007.4 hPa | 0 mm | - | 203 W/m² | - |
| 1778087346 | 22.22° C | 60% | 1007.6 hPa | 0 mm | - | 265 W/m² | - |
| 1778085826 | 22.22° C | 59% | 1007.8 hPa | 0 mm | - | 157 W/m² | - |
| 1778085524 | 22.22° C | 59% | 1007.9 hPa | 0 mm | - | 184 W/m² | - |
| 1778081662 | 21.67° C | 63% | 1009.1 hPa | 0 mm | - | 178 W/m² | - |
| 1778081056 | 21.67° C | 63% | 1009.2 hPa | 0 mm | - | 204 W/m² | - |
| 1778079845 | 21.11° C | 64% | 1009.1 hPa | 0 mm | - | 418 W/m² | - |
| 1778079238 | 21.11° C | 66% | 1009.4 hPa | 0 mm | - | 258 W/m² | - |
| 1778078936 | 21.11° C | 66% | 1009.4 hPa | 0 mm | - | 256 W/m² | - |
| 1778078632 | 20.56° C | 66% | 1009.4 hPa | 0 mm | - | 262 W/m² | - |
| 1778077423 | 20.56° C | 68% | 1009.2 hPa | 0 mm | - | 355 W/m² | - |
| 1778076517 | 20° C | 69% | 1009.2 hPa | 0 mm | - | 546 W/m² | - |
| 1778075607 | 19.44° C | 71% | 1009.2 hPa | 0 mm | - | 228 W/m² | - |
| 1778075000 | 19.44° C | 72% | 1009.8 hPa | 0 mm | - | 323 W/m² | - |
| 1778074394 | 19.44° C | 72% | 1009.8 hPa | 0 mm | - | 193 W/m² | - |
| 1778073788 | 19.44° C | 72% | 1009.7 hPa | 0 mm | - | 162 W/m² | - |
* Rain latest hour (hover to see other rain measurements)
** Current wind speed in m/s (hover to see current wind gust speed)